Portada
METAR-TAF:

METAR-TAF

Aeroports :

Mataram, Indonèsia

latitud: 08-45-29S, longitud: 116-16-35E, altitud: 97 m

Observació

L'informe es va fer fa 23 minuts, a les 19:30 UTC
Vent 3 kt amb direcció variable
Temperatura 26°C
Humitat 94%
Pressió 1011 hPa
Visibilitat: 7000 m
Núvols disperses a una alçada de 1600 ft

METAR: WADL 131930Z VRB03KT 7000 SCT016 26/25 Q1011 NOSIG

Hora: 02:53 (19:53 UTC)

Pronòstic

L'informe es va fer fa 2 hores i 53 minuts, a les 17:00 UTC
Pronòstic vàlid del 13 a les 18 UTC al 14 a les 18 UTC
Vent 5 kt del Est
Visibilitat: 7000 m
Núvols disperses a una alçada de 1600 ft
Evolucionant progressivament
l' 14 a les 01 UTC al 14 a les 03 UTC
Vent 13 kt del Sud-Est

TAF: WADL 131700Z 1318/1418 10005KT 7000 SCT016 BECMG 1401/1403 13013KT

Observacions i pronòstics meteorològics de més de 4000 aeroports (METAR i TAF).

Les estacions disponibles són els punts grocs i vermells al mapa.

Posi el ratolí al punt desitjat per veure el nom de l'estació.

Feu clic per veure les observacions i els pronòstics meteorològics.

Per canviar el mapa: feu clic els botons verds amb una creu de color negre per apropar; al botó verd amb un guió per allunyar la imatge; o en les fletxes verdes per a mapes adjacents.


METAR-TAF: